Main page
METAR-TAF:

Airports :

Istanbul Atatürk, Turkey

Istanbul Atatürk Airport

latitude: 40-58N, longitude: 028-49E, elevation: 48 m

Current weather observation

The report was made 38 minutes ago, at 07:20 UTC
Wind 11 kt from the Northeast, varying between North and East
Temperature 16°C
Humidity 59%
Pressure 1019 hPa
Visibility 10 km or more
Scattered clouds at a height of 2600 ft

METAR: LTBA 010720Z 04011KT 360V090 9999 SCT026 16/08 Q1019 NOSIG RMK RWY17L 06013KT RWY05 04013KT RWY23 VRB13KT

Time: 10:58 (07:58 UTC)

Forecast

The report was made 3 hours and 18 minutes ago, at 04:40 UTC
Forecast valid from 01 at 06 UTC to 02 at 12 UTC
Wind 9 kt from the Northeast
Visibility 10 km or more
no clouds below 1500 m and no cumulonimbus

TAF: LTBA 010440Z 0106/0212 04009KT CAVOK

METAR-TAF

Weather observations and forecasts of more than 4000 airports (METAR and TAF reports).

The available stations are represented by yellow and red dots on the map.

Hover mouse over dot to see the name of the station.

Then click to see weather observations and forecasts.

To change the map : click on the green buttons with a black cross to zoom in, on the green button with a dash to zoom out, or on the green arrows for adjacent maps.


METAR-TAF: